createdAt,value
2017-10-23T00:00:14.938Z,3.00
2017-10-23T00:02:42.570Z,2.70
2017-10-23T00:05:10.158Z,2.57
2017-10-23T00:07:37.800Z,2.70
2017-10-23T00:10:05.394Z,2.30
2017-10-23T00:12:33.063Z,3.47
2017-10-23T00:15:00.663Z,2.63
2017-10-23T00:17:28.393Z,2.33
2017-10-23T00:19:55.982Z,2.27
2017-10-23T00:22:23.635Z,2.90
2017-10-23T00:24:51.272Z,3.20
2017-10-23T00:27:18.863Z,2.23
2017-10-23T00:29:46.527Z,2.97
2017-10-23T00:32:14.115Z,3.80
2017-10-23T00:34:41.752Z,2.60
2017-10-23T00:37:09.347Z,2.00
2017-10-23T00:39:37.783Z,3.70
2017-10-23T00:42:06.463Z,2.47
2017-10-23T00:44:34.090Z,3.10
2017-10-23T00:47:01.683Z,2.50
2017-10-23T00:49:29.313Z,3.10
2017-10-23T00:51:57.018Z,2.23
2017-10-23T00:54:24.654Z,3.27
2017-10-23T00:56:52.773Z,2.67
2017-10-23T00:59:20.393Z,2.57
2017-10-23T01:01:47.995Z,2.67
2017-10-23T01:04:15.591Z,2.63
2017-10-23T01:06:43.220Z,2.57
2017-10-23T01:09:11.667Z,2.80
2017-10-23T01:11:39.271Z,2.20
2017-10-23T01:14:06.868Z,2.83
2017-10-23T01:16:34.502Z,2.63
2017-10-23T01:19:02.097Z,2.43
2017-10-23T01:21:29.731Z,2.40
2017-10-23T01:23:57.334Z,2.80
2017-10-23T01:26:24.967Z,2.80
2017-10-23T01:28:52.547Z,2.20
2017-10-23T01:31:20.174Z,3.30
2017-10-23T01:33:47.768Z,2.00
2017-10-23T01:36:15.383Z,2.90
2017-10-23T01:38:43.054Z,2.60
2017-10-23T01:41:10.653Z,2.37
2017-10-23T01:43:38.281Z,2.63
2017-10-23T01:46:07.093Z,2.50
2017-10-23T01:48:34.711Z,2.47
2017-10-23T01:51:02.306Z,2.53
2017-10-23T01:53:29.927Z,3.27
2017-10-23T01:55:57.515Z,3.37
2017-10-23T01:58:25.156Z,3.10
2017-10-23T02:00:52.731Z,2.63
2017-10-23T02:03:20.380Z,2.63
2017-10-23T02:05:47.978Z,2.50
2017-10-23T02:08:15.611Z,2.70
2017-10-23T02:10:44.074Z,2.67
2017-10-23T02:13:11.759Z,2.70
2017-10-23T02:15:39.361Z,2.00
2017-10-23T02:18:06.995Z,2.67
2017-10-23T02:20:34.592Z,2.40
2017-10-23T02:23:02.966Z,2.33
2017-10-23T02:25:30.595Z,2.27
2017-10-23T02:27:58.170Z,2.90
2017-10-23T02:30:25.825Z,2.83
2017-10-23T02:32:53.409Z,2.30
2017-10-23T02:35:21.045Z,3.40
2017-10-23T02:37:48.642Z,3.27
2017-10-23T02:40:16.261Z,2.13
2017-10-23T02:42:43.864Z,2.20
2017-10-23T02:45:11.482Z,2.23
2017-10-23T02:47:39.888Z,2.53
2017-10-23T02:50:07.531Z,2.07
2017-10-23T02:52:35.120Z,1.90
2017-10-23T02:55:02.743Z,2.07
2017-10-23T02:57:30.871Z,1.90
2017-10-23T02:59:58.490Z,2.20
2017-10-23T03:02:26.096Z,2.80
2017-10-23T03:04:53.736Z,2.60
2017-10-23T03:07:21.399Z,2.83
2017-10-23T03:09:49.015Z,2.57
2017-10-23T03:12:16.607Z,2.80
2017-10-23T03:14:44.273Z,3.20
2017-10-23T03:17:11.835Z,3.10
2017-10-23T03:19:39.467Z,2.80
2017-10-23T03:22:07.050Z,2.83
2017-10-23T03:24:34.677Z,3.13
2017-10-23T03:27:02.271Z,2.37
2017-10-23T03:29:29.891Z,3.07
2017-10-23T03:31:57.464Z,3.47
2017-10-23T03:34:26.286Z,2.37
2017-10-23T03:36:53.867Z,2.73
2017-10-23T03:39:21.494Z,3.00
2017-10-23T03:41:49.112Z,2.60
2017-10-23T03:44:16.732Z,2.30
2017-10-23T03:46:44.317Z,2.17
2017-10-23T03:49:11.931Z,2.60
2017-10-23T03:51:39.625Z,3.30
2017-10-23T03:54:07.305Z,2.57
2017-10-23T03:56:34.905Z,2.63
2017-10-23T03:59:02.618Z,2.13
2017-10-23T04:01:30.204Z,2.10
2017-10-23T04:03:57.807Z,3.80
2017-10-23T04:06:25.399Z,2.20
2017-10-23T04:08:53.078Z,2.40
2017-10-23T04:11:20.675Z,2.60
2017-10-23T04:13:48.949Z,2.70
2017-10-23T04:16:16.575Z,3.37
2017-10-23T04:18:44.196Z,2.57
2017-10-23T04:21:11.789Z,3.10
2017-10-23T04:23:39.425Z,2.80
2017-10-23T04:26:07.666Z,1.70
2017-10-23T04:28:35.279Z,2.93
2017-10-23T04:31:02.871Z,3.70
2017-10-23T04:33:30.488Z,2.90
2017-10-23T04:35:58.083Z,2.93
2017-10-23T04:38:25.707Z,2.20
2017-10-23T04:40:53.300Z,3.20
2017-10-23T04:43:20.906Z,2.63
2017-10-23T04:45:48.520Z,1.90
2017-10-23T04:48:16.140Z,2.37
2017-10-23T04:50:43.770Z,2.43
2017-10-23T04:53:11.375Z,3.30
2017-10-23T04:55:39.006Z,2.80
2017-10-23T04:58:06.587Z,1.93
2017-10-23T05:00:34.206Z,2.10
2017-10-23T05:03:01.785Z,2.40
2017-10-23T05:05:29.406Z,1.93
2017-10-23T05:07:57.023Z,2.73
2017-10-23T05:10:24.629Z,2.33
2017-10-23T05:12:52.250Z,2.10
2017-10-23T05:15:19.855Z,2.27
2017-10-23T05:17:47.484Z,2.10
2017-10-23T05:20:15.065Z,3.27
2017-10-23T05:22:42.723Z,2.20
2017-10-23T05:25:10.328Z,2.63
2017-10-23T05:27:37.987Z,2.43
2017-10-23T05:30:05.550Z,2.20
2017-10-23T05:32:33.176Z,3.77
2017-10-23T05:35:00.748Z,2.30
2017-10-23T05:37:28.389Z,1.80
2017-10-23T05:39:56.014Z,2.13
2017-10-23T05:42:23.725Z,2.27
2017-10-23T05:44:51.446Z,1.83
2017-10-23T05:47:19.039Z,2.33
2017-10-23T05:49:46.696Z,2.17
2017-10-23T05:52:14.902Z,2.00
2017-10-23T05:54:42.482Z,2.30
2017-10-23T05:57:10.117Z,2.63
2017-10-23T05:59:37.706Z,1.63
2017-10-23T06:02:05.310Z,3.33
2017-10-23T06:04:32.918Z,2.57
2017-10-23T06:07:00.596Z,3.03
2017-10-23T06:09:28.361Z,3.20
2017-10-23T06:11:55.962Z,2.17
2017-10-23T06:14:23.533Z,2.30
2017-10-23T06:16:51.247Z,2.13
2017-10-23T06:19:18.826Z,2.03
2017-10-23T06:21:46.458Z,1.97
2017-10-23T06:24:14.088Z,2.50
2017-10-23T06:26:41.683Z,3.87
2017-10-23T06:29:09.304Z,2.53
2017-10-23T06:31:36.946Z,3.33
2017-10-23T06:34:04.561Z,2.30
2017-10-23T06:36:32.198Z,2.50
2017-10-23T06:38:59.888Z,2.60
2017-10-23T06:41:27.500Z,3.50
2017-10-23T06:43:55.139Z,3.00
2017-10-23T06:46:22.758Z,3.10
2017-10-23T06:48:50.362Z,2.40
2017-10-23T06:51:17.990Z,3.63
2017-10-23T06:53:45.566Z,3.40
2017-10-23T06:56:13.180Z,3.07
2017-10-23T06:58:40.854Z,3.13
2017-10-23T07:01:08.477Z,3.10
2017-10-23T07:03:36.061Z,3.20
2017-10-23T07:06:03.742Z,2.70
2017-10-23T07:08:31.315Z,3.00
2017-10-23T07:10:59.591Z,4.27
2017-10-23T07:13:28.058Z,4.43
2017-10-23T07:15:55.668Z,3.57
2017-10-23T07:18:23.302Z,3.63
2017-10-23T07:20:50.911Z,4.03
2017-10-23T07:23:18.562Z,3.00
2017-10-23T07:25:46.177Z,3.40
2017-10-23T07:28:13.843Z,2.90
2017-10-23T07:30:42.682Z,3.87
2017-10-23T07:33:10.288Z,3.03
2017-10-23T07:35:37.887Z,2.87
2017-10-23T07:38:05.510Z,2.80
2017-10-23T07:40:33.120Z,3.50
2017-10-23T07:43:00.775Z,3.17
2017-10-23T07:45:28.515Z,4.17
2017-10-23T07:47:56.175Z,2.70
2017-10-23T07:50:23.771Z,2.97
2017-10-23T07:52:51.519Z,2.57
2017-10-23T07:55:19.115Z,3.30
2017-10-23T07:57:46.740Z,2.70
2017-10-23T08:00:14.331Z,2.70
2017-10-23T08:02:41.968Z,3.53
2017-10-23T08:05:09.570Z,3.17
2017-10-23T08:07:37.194Z,3.00
2017-10-23T08:10:04.788Z,5.30
2017-10-23T08:12:32.419Z,3.80
2017-10-23T08:15:00.023Z,3.40
2017-10-23T08:17:27.642Z,2.87
2017-10-23T08:19:55.254Z,3.47
2017-10-23T08:22:22.911Z,2.47
2017-10-23T08:24:50.498Z,3.10
2017-10-23T08:27:18.125Z,4.20
2017-10-23T08:29:45.764Z,3.10
2017-10-23T08:32:13.392Z,2.70
2017-10-23T08:34:40.982Z,3.93
2017-10-23T08:37:08.663Z,3.87
2017-10-23T08:39:36.264Z,2.90
2017-10-23T08:42:03.879Z,2.70
2017-10-23T08:44:31.504Z,2.27
2017-10-23T08:46:59.110Z,2.70
2017-10-23T08:49:26.764Z,2.70
2017-10-23T08:51:54.375Z,3.23
2017-10-23T08:54:22.093Z,3.07
2017-10-23T08:56:49.681Z,2.07
2017-10-23T08:59:17.316Z,2.80
2017-10-23T09:01:44.926Z,2.40
2017-10-23T09:04:12.546Z,2.50
2017-10-23T09:06:40.143Z,3.03
2017-10-23T09:09:07.792Z,2.77
2017-10-23T09:11:35.406Z,2.30
2017-10-23T09:14:03.198Z,2.50
2017-10-23T09:16:30.780Z,2.30
2017-10-23T09:18:58.418Z,2.00
2017-10-23T09:21:26.006Z,2.10
2017-10-23T09:23:53.630Z,1.63
2017-10-23T09:26:21.244Z,2.00
2017-10-23T09:28:48.873Z,1.83
2017-10-23T09:31:16.467Z,2.40
2017-10-23T09:33:44.096Z,2.13
2017-10-23T09:36:11.706Z,3.40
2017-10-23T09:38:39.367Z,2.00
2017-10-23T09:41:07.032Z,3.17
2017-10-23T09:43:34.763Z,2.27
2017-10-23T09:46:02.379Z,1.87
2017-10-23T09:48:30.047Z,2.20
2017-10-23T09:50:57.647Z,2.60
2017-10-23T09:53:25.310Z,2.07
2017-10-23T09:55:52.958Z,2.03
2017-10-23T09:58:20.595Z,2.03
2017-10-23T10:00:48.220Z,1.90
2017-10-23T10:03:15.824Z,2.47
2017-10-23T10:05:43.443Z,2.23
2017-10-23T10:08:11.063Z,2.40
2017-10-23T10:10:38.726Z,4.30
2017-10-23T10:13:06.455Z,2.40
2017-10-23T10:15:34.125Z,2.93
2017-10-23T10:18:01.740Z,2.80
2017-10-23T10:20:29.366Z,2.27
2017-10-23T10:22:56.968Z,3.63
2017-10-23T10:25:24.599Z,3.07
2017-10-23T10:27:52.326Z,2.80
2017-10-23T10:30:20.003Z,4.73
2017-10-23T10:32:47.665Z,2.73
2017-10-23T10:35:15.274Z,2.80
2017-10-23T10:37:42.921Z,3.67
2017-10-23T10:40:10.529Z,3.37
2017-10-23T10:42:38.182Z,3.30
2017-10-23T10:45:05.828Z,4.27
2017-10-23T10:47:33.451Z,3.90
2017-10-23T10:50:01.076Z,3.20
2017-10-23T10:52:28.726Z,2.90
2017-10-23T10:54:56.331Z,2.97
2017-10-23T10:57:23.989Z,3.77
2017-10-23T10:59:51.587Z,2.90
2017-10-23T11:02:19.225Z,3.10
2017-10-23T11:04:46.891Z,2.80
2017-10-23T11:07:14.527Z,3.60
2017-10-23T11:09:42.127Z,3.20
2017-10-23T11:12:09.864Z,3.33
2017-10-23T11:14:37.472Z,2.70
2017-10-23T11:17:05.083Z,2.87
2017-10-23T11:19:32.770Z,3.47
2017-10-23T11:22:00.390Z,3.00
2017-10-23T11:24:28.029Z,3.40
2017-10-23T11:26:55.746Z,2.90
2017-10-23T11:29:23.339Z,3.30
2017-10-23T11:31:51.011Z,3.07
2017-10-23T11:34:18.582Z,3.43
2017-10-23T11:36:46.359Z,3.63
2017-10-23T11:39:13.990Z,3.00
2017-10-23T11:41:41.631Z,3.00
2017-10-23T11:44:09.275Z,3.50
2017-10-23T11:46:36.919Z,3.30
2017-10-23T11:49:04.534Z,4.67
2017-10-23T11:51:32.190Z,3.40
2017-10-23T11:53:59.891Z,4.43
2017-10-23T11:56:27.521Z,3.60
2017-10-23T11:58:55.164Z,3.37
2017-10-23T12:01:22.921Z,3.17
2017-10-23T12:03:50.510Z,2.90
2017-10-23T12:06:18.167Z,3.20
2017-10-23T12:08:45.766Z,2.93
2017-10-23T12:11:13.366Z,3.47
2017-10-23T12:13:41.011Z,3.47
2017-10-23T12:16:08.745Z,3.20
2017-10-23T12:18:36.358Z,3.57
2017-10-23T12:21:04.006Z,5.00
2017-10-23T12:23:31.638Z,3.70
2017-10-23T12:25:59.379Z,3.87
2017-10-23T12:28:27.019Z,3.70
2017-10-23T12:30:54.671Z,3.50
2017-10-23T12:33:22.274Z,3.53
2017-10-23T12:35:49.923Z,4.27
2017-10-23T12:38:17.542Z,5.10
2017-10-23T12:40:45.174Z,2.97
2017-10-23T12:43:12.834Z,3.30
2017-10-23T12:45:40.521Z,3.57
2017-10-23T12:48:08.127Z,3.07
2017-10-23T12:50:35.762Z,3.47
2017-10-23T12:53:03.376Z,3.43
2017-10-23T12:55:31.033Z,2.83
2017-10-23T12:57:58.636Z,2.90
2017-10-23T13:00:26.272Z,3.30
2017-10-23T13:02:53.892Z,2.73
2017-10-23T13:05:21.596Z,3.27
2017-10-23T13:07:49.255Z,3.27
2017-10-23T13:10:16.884Z,3.20
2017-10-23T13:12:44.510Z,3.10
2017-10-23T13:15:12.130Z,2.97
2017-10-23T13:17:39.778Z,2.93
2017-10-23T13:20:07.393Z,2.40
2017-10-23T13:22:35.032Z,2.77
2017-10-23T13:25:02.662Z,2.87
2017-10-23T13:27:30.275Z,3.47
2017-10-23T13:29:57.907Z,5.10
2017-10-23T13:32:25.531Z,2.77
2017-10-23T13:34:53.155Z,3.53
2017-10-23T13:37:20.790Z,3.27
2017-10-23T13:39:48.410Z,2.93
2017-10-23T13:42:16.113Z,3.50
2017-10-23T13:44:43.730Z,2.83
2017-10-23T13:47:11.393Z,3.00
2017-10-23T13:49:39.004Z,3.47
2017-10-23T13:52:06.769Z,2.30
2017-10-23T13:54:34.422Z,2.90
2017-10-23T13:57:02.054Z,2.63
2017-10-23T13:59:29.707Z,1.80
2017-10-23T14:01:57.404Z,4.97
2017-10-23T14:04:25.046Z,2.27
2017-10-23T14:06:52.685Z,3.07
2017-10-23T14:09:20.339Z,2.03
2017-10-23T14:11:47.938Z,2.23
2017-10-23T14:14:15.587Z,3.93
2017-10-23T14:16:43.281Z,3.10
2017-10-23T14:19:10.929Z,2.70
2017-10-23T14:21:38.549Z,2.43
2017-10-23T14:24:06.199Z,3.33
2017-10-23T14:26:33.787Z,2.17
2017-10-23T14:29:01.414Z,3.57
2017-10-23T14:31:29.004Z,2.77
2017-10-23T14:33:56.611Z,2.30
2017-10-23T14:36:24.352Z,3.57
2017-10-23T14:38:52.000Z,2.67
2017-10-23T14:41:19.622Z,2.97
2017-10-23T14:43:47.233Z,2.30
2017-10-23T14:46:14.855Z,4.43
2017-10-23T14:48:42.462Z,2.83
2017-10-23T14:51:10.107Z,2.47
2017-10-23T14:53:37.724Z,2.57
2017-10-23T14:56:05.360Z,2.47
2017-10-23T14:58:32.955Z,2.30
2017-10-23T15:01:00.624Z,2.77
2017-10-23T15:03:28.219Z,3.37
2017-10-23T15:05:55.866Z,2.43
2017-10-23T15:08:23.489Z,4.10
2017-10-23T15:10:51.125Z,2.57
2017-10-23T15:13:18.746Z,2.57
2017-10-23T15:15:46.452Z,2.90
2017-10-23T15:18:14.043Z,2.90
2017-10-23T15:20:41.680Z,5.47
2017-10-23T15:23:09.290Z,3.07
2017-10-23T15:25:36.935Z,2.30
2017-10-23T15:28:04.538Z,2.30
2017-10-23T15:30:32.166Z,3.37
2017-10-23T15:32:59.806Z,3.10
2017-10-23T15:35:27.476Z,3.20
2017-10-23T15:37:55.086Z,2.53
2017-10-23T15:40:22.704Z,3.00
2017-10-23T15:42:50.419Z,3.37
2017-10-23T15:45:18.050Z,2.83
2017-10-23T15:47:45.691Z,3.07
2017-10-23T15:50:13.306Z,3.83
2017-10-23T15:52:40.959Z,2.80
2017-10-23T15:55:08.583Z,2.60
2017-10-23T15:57:36.270Z,2.90
2017-10-23T16:00:03.900Z,3.47
2017-10-23T16:02:31.606Z,3.30
2017-10-23T16:04:59.243Z,3.70
2017-10-23T16:07:26.898Z,2.77
2017-10-23T16:09:54.493Z,4.80
2017-10-23T16:12:22.122Z,4.00
2017-10-23T16:14:49.742Z,3.00
2017-10-23T16:17:17.372Z,4.20
2017-10-23T16:19:44.974Z,3.60
2017-10-23T16:22:12.600Z,3.70
2017-10-23T16:24:40.189Z,5.17
2017-10-23T16:27:08.632Z,20.43
2017-10-23T16:29:36.231Z,3.40
2017-10-23T16:32:03.858Z,3.53
2017-10-23T16:34:32.401Z,3.50
2017-10-23T16:37:00.166Z,3.60
2017-10-23T16:39:27.752Z,3.97
2017-10-23T16:41:55.385Z,3.57
2017-10-23T16:44:23.029Z,4.03
2017-10-23T16:46:50.808Z,3.60
2017-10-23T16:49:18.395Z,4.67
2017-10-23T16:51:45.994Z,5.10
2017-10-23T16:54:13.634Z,4.00
2017-10-23T16:56:41.273Z,3.93
2017-10-23T16:59:08.961Z,4.90
2017-10-23T17:01:36.568Z,5.70
2017-10-23T17:04:04.186Z,4.80
2017-10-23T17:06:31.787Z,5.43
2017-10-23T17:08:59.540Z,6.47
2017-10-23T17:11:27.156Z,8.60
2017-10-23T17:13:54.803Z,8.20
2017-10-23T17:16:22.456Z,5.60
2017-10-23T17:18:50.110Z,5.97
2017-10-23T17:21:17.748Z,4.50
2017-10-23T17:23:45.398Z,4.97
2017-10-23T17:26:13.035Z,5.93
2017-10-23T17:28:40.678Z,5.60
2017-10-23T17:31:08.291Z,5.50
2017-10-23T17:33:35.948Z,5.90
2017-10-23T17:36:03.544Z,4.27
2017-10-23T17:38:31.182Z,6.80
2017-10-23T17:40:58.838Z,6.20
2017-10-23T17:43:26.483Z,6.30
2017-10-23T17:45:54.151Z,6.07
2017-10-23T17:48:21.806Z,6.80
2017-10-23T17:50:49.410Z,5.40
2017-10-23T17:53:17.056Z,6.07
2017-10-23T17:55:44.681Z,5.27
2017-10-23T17:58:12.302Z,5.70
2017-10-23T18:00:39.955Z,5.23
2017-10-23T18:03:09.271Z,5.70
2017-10-23T18:05:36.932Z,6.50
2017-10-23T18:08:04.594Z,5.90
2017-10-23T18:10:32.239Z,5.20
2017-10-23T18:12:59.864Z,6.87
2017-10-23T18:15:27.507Z,6.47
2017-10-23T18:17:55.131Z,7.00
2017-10-23T18:20:23.431Z,5.83
2017-10-23T18:22:51.042Z,7.17
2017-10-23T18:25:18.698Z,33.30
2017-10-23T18:27:46.306Z,18.67
2017-10-23T18:30:13.955Z,8.13
2017-10-23T18:32:41.557Z,6.57
2017-10-23T18:35:09.196Z,5.90
2017-10-23T18:37:36.782Z,5.73
2017-10-23T18:40:04.426Z,6.10
2017-10-23T18:42:32.051Z,5.87
2017-10-23T18:44:59.719Z,5.07
2017-10-23T18:47:27.369Z,5.93
2017-10-23T18:49:55.031Z,5.87
2017-10-23T18:52:22.651Z,5.87
2017-10-23T18:54:51.162Z,7.33
2017-10-23T18:57:18.790Z,5.60
2017-10-23T18:59:46.419Z,5.57
2017-10-23T19:02:14.053Z,6.47
2017-10-23T19:04:41.690Z,5.53
2017-10-23T19:07:09.304Z,7.27
2017-10-23T19:09:36.916Z,65.77
2017-10-23T19:12:04.582Z,11.97
2017-10-23T19:14:32.206Z,6.03
2017-10-23T19:16:59.855Z,7.77
2017-10-23T19:19:27.480Z,6.10
2017-10-23T19:21:55.150Z,7.17
2017-10-23T19:24:23.403Z,7.87
2017-10-23T19:26:51.088Z,6.20
2017-10-23T19:29:18.718Z,5.83
2017-10-23T19:31:46.366Z,5.63
2017-10-23T19:34:13.999Z,4.87
2017-10-23T19:36:41.661Z,5.60
2017-10-23T19:39:09.333Z,5.53
2017-10-23T19:41:37.116Z,10.70
2017-10-23T19:44:04.755Z,7.10
2017-10-23T19:46:32.400Z,5.70
2017-10-23T19:48:59.992Z,8.70
2017-10-23T19:51:27.740Z,22.90
2017-10-23T19:53:55.363Z,15.50
2017-10-23T19:56:23.015Z,7.13
2017-10-23T19:58:50.654Z,37.90
2017-10-23T20:01:18.332Z,28.33
2017-10-23T20:03:45.955Z,142.07
2017-10-23T20:06:13.612Z,348.47
2017-10-23T20:08:41.238Z,983.40
2017-10-23T20:11:09.987Z,999.90
2017-10-23T20:13:37.620Z,659.17
2017-10-23T20:16:05.282Z,122.27
2017-10-23T20:18:32.893Z,36.33
2017-10-23T20:21:00.563Z,33.23
2017-10-23T20:23:28.182Z,13.70
2017-10-23T20:25:55.829Z,3.87
2017-10-23T20:28:23.478Z,4.77
2017-10-23T20:30:51.143Z,4.70
2017-10-23T20:33:18.749Z,3.97
2017-10-23T20:35:46.381Z,3.30
2017-10-23T20:38:13.976Z,4.00
2017-10-23T20:40:41.632Z,3.43
2017-10-23T20:43:09.243Z,5.40
2017-10-23T20:45:36.888Z,5.00
2017-10-23T20:48:04.490Z,5.47
2017-10-23T20:50:32.139Z,5.50
2017-10-23T20:52:59.738Z,4.73
2017-10-23T20:55:27.381Z,4.37
2017-10-23T20:57:55.024Z,3.97
2017-10-23T21:00:22.673Z,4.90
2017-10-23T21:02:51.502Z,6.40
2017-10-23T21:05:19.126Z,4.00
2017-10-23T21:07:46.721Z,3.40
2017-10-23T21:10:14.378Z,5.07
2017-10-23T21:12:42.065Z,4.33
2017-10-23T21:15:09.728Z,5.40
2017-10-23T21:17:37.351Z,4.77
2017-10-23T21:20:05.096Z,5.43
2017-10-23T21:22:32.715Z,4.90
2017-10-23T21:25:00.363Z,5.43
2017-10-23T21:27:27.985Z,4.70
2017-10-23T21:29:55.755Z,5.00
2017-10-23T21:32:23.346Z,4.43
2017-10-23T21:34:50.966Z,4.13
2017-10-23T21:37:18.598Z,3.97
2017-10-23T21:39:46.190Z,4.57
2017-10-23T21:42:13.819Z,4.47
2017-10-23T21:44:41.429Z,4.27
2017-10-23T21:47:10.308Z,4.17
2017-10-23T21:49:38.028Z,4.40
2017-10-23T21:52:05.654Z,3.97
2017-10-23T21:54:33.289Z,3.97
2017-10-23T21:57:00.956Z,4.23
2017-10-23T21:59:28.596Z,7.07
2017-10-23T22:01:56.268Z,8.57
2017-10-23T22:04:23.888Z,6.90
2017-10-23T22:06:51.531Z,7.33
2017-10-23T22:09:19.150Z,7.20
2017-10-23T22:11:46.785Z,6.50
2017-10-23T22:14:14.410Z,7.83
2017-10-23T22:16:42.044Z,7.00
2017-10-23T22:19:09.635Z,7.10
2017-10-23T22:21:37.282Z,6.97
2017-10-23T22:24:04.894Z,7.67
2017-10-23T22:26:32.513Z,6.50
2017-10-23T22:29:00.154Z,8.97
2017-10-23T22:31:27.795Z,7.27
2017-10-23T22:33:55.410Z,7.37
2017-10-23T22:36:23.070Z,7.33
2017-10-23T22:38:50.666Z,7.40
2017-10-23T22:41:18.285Z,6.67
2017-10-23T22:43:45.950Z,5.77
2017-10-23T22:46:13.550Z,8.10
2017-10-23T22:48:41.195Z,7.70
2017-10-23T22:51:08.798Z,7.57
2017-10-23T22:53:36.451Z,7.30
2017-10-23T22:56:04.050Z,8.10
2017-10-23T22:58:31.834Z,6.30
2017-10-23T23:00:59.427Z,6.13
2017-10-23T23:03:27.059Z,5.73
2017-10-23T23:05:54.642Z,6.23
2017-10-23T23:08:22.293Z,5.60
2017-10-23T23:10:49.886Z,5.03
2017-10-23T23:13:17.519Z,5.67
2017-10-23T23:15:45.203Z,5.57
2017-10-23T23:18:14.035Z,6.27
2017-10-23T23:20:41.643Z,6.43
2017-10-23T23:23:09.264Z,6.33
2017-10-23T23:25:36.863Z,7.07
2017-10-23T23:28:04.644Z,7.50
2017-10-23T23:30:32.269Z,7.57
2017-10-23T23:32:59.918Z,7.43
2017-10-23T23:35:27.536Z,6.63
2017-10-23T23:37:55.147Z,6.97
2017-10-23T23:40:22.784Z,7.00
2017-10-23T23:42:50.370Z,6.10
2017-10-23T23:45:18.009Z,6.13
2017-10-23T23:47:45.600Z,6.33
2017-10-23T23:50:13.220Z,6.33
2017-10-23T23:52:40.827Z,6.60
2017-10-23T23:55:09.950Z,6.70
2017-10-23T23:57:37.567Z,6.97
